Time;durP1;ratioP1;P1;durP2;ratioP2;P2;SDS_P1;SDS_P2;PMS_P1;PMS_P2;Temp;Humidity;BMP_temperature;BMP_pressure;BME280_temperature;BME280_humidity;BME280_pressure;Samples;Min_cycle;Max_cycle;Signal;HPM_P1;HPM_P2
2023/09/12 00:01:08;;;;;;;;;;;16.80;99.90;;;;;;4973241;28;19960;-72
2023/09/12 00:03:34;;;;;;;;;;;16.90;99.90;;;;;;4971556;28;19933;-72
2023/09/12 00:06:01;;;;;;;;;;;16.90;99.90;;;;;;4972729;28;20564;-75
2023/09/12 00:08:26;;;;;;;;;;;16.80;99.90;;;;;;4972534;28;20438;-75
2023/09/12 00:10:59;;;;;;;;;;;16.90;99.90;;;;;;4965542;28;19956;-74
2023/09/12 00:13:25;;;;;;;;;;;16.80;99.90;;;;;;4977048;28;19935;-73
2023/09/12 00:15:50;;;;;;;;;;;16.80;99.90;;;;;;4973830;28;19946;-73
2023/09/12 00:18:16;;;;;;;;;;;16.70;99.90;;;;;;4966574;28;19940;-73
2023/09/12 00:20:41;;;;;;;;;;;16.70;99.90;;;;;;4969639;28;19957;-74
2023/09/12 00:23:07;;;;;;;;;;;16.80;99.90;;;;;;4973404;28;20350;-74
2023/09/12 00:25:32;;;;;;;;;;;16.80;99.90;;;;;;4971604;28;20002;-74
2023/09/12 00:27:58;;;;;;;;;;;16.60;99.90;;;;;;4968973;28;19939;-75
2023/09/12 00:30:23;;;;;;;;;;;16.50;99.90;;;;;;4966903;28;20048;-73
2023/09/12 00:32:49;;;;;;;;;;;16.50;99.90;;;;;;4962530;28;19992;-73
2023/09/12 00:35:15;;;;;;;;;;;16.40;99.90;;;;;;4952544;28;19943;-74
2023/09/12 00:37:40;;;;;;;;;;;16.30;99.90;;;;;;4965937;28;20312;-76
2023/09/12 00:40:06;;;;;;;;;;;16.10;99.90;;;;;;4966130;28;19932;-74
2023/09/12 00:42:32;;;;;;;;;;;16.10;99.90;;;;;;4963927;28;20061;-75
2023/09/12 00:44:57;;;;;;;;;;;16.20;99.90;;;;;;4961904;28;19990;-74
2023/09/12 00:47:23;;;;;;;;;;;16.20;99.90;;;;;;4972508;28;20566;-76
2023/09/12 00:49:50;;;;;;;;;;;16.20;99.90;;;;;;4971501;28;20018;-75
2023/09/12 00:52:16;;;;;;;;;;;16.20;99.90;;;;;;4969979;28;19957;-75
2023/09/12 00:54:42;;;;;;;;;;;16.30;99.90;;;;;;4966128;28;19934;-75
2023/09/12 00:57:07;;;;;;;;;;;16.30;99.90;;;;;;4971788;28;19936;-75
2023/09/12 00:59:33;;;;;;;;;;;16.30;99.90;;;;;;4969874;28;20936;-76
2023/09/12 01:01:59;;;;;;;;;;;16.40;99.90;;;;;;4969111;28;20354;-77
2023/09/12 01:04:25;;;;;;;;;;;16.40;99.90;;;;;;4971429;28;19968;-77
2023/09/12 01:06:51;;;;;;;;;;;16.40;99.90;;;;;;4972289;28;20098;-77
2023/09/12 01:09:17;;;;;;;;;;;16.40;99.90;;;;;;4970131;28;19934;-77
2023/09/12 01:11:43;;;;;;;;;;;16.20;99.90;;;;;;4968593;28;20772;-78
2023/09/12 01:14:08;;;;;;;;;;;16.00;99.90;;;;;;4974651;28;19949;-78
2023/09/12 01:16:34;;;;;;;;;;;15.90;99.90;;;;;;4965007;28;20077;-77
2023/09/12 01:19:00;;;;;;;;;;;16.00;99.90;;;;;;4967647;28;19936;-78
2023/09/12 01:21:25;;;;;;;;;;;16.00;99.90;;;;;;4969541;28;19999;-77
2023/09/12 01:24:09;;;;;;;;;;;16.00;99.90;;;;;;4969988;28;19971;-77
2023/09/12 01:26:53;;;;;;;;;;;16.10;99.90;;;;;;4966128;28;19930;-77
2023/09/12 01:29:21;;;;;;;;;;;16.20;99.90;;;;;;4970753;28;19935;-77
2023/09/12 01:31:47;;;;;;;;;;;16.20;99.90;;;;;;4951016;28;20563;-76
2023/09/12 01:34:14;;;;;;;;;;;16.30;99.90;;;;;;4956202;28;20421;-76
2023/09/12 01:36:39;;;;;;;;;;;16.30;99.90;;;;;;4962927;28;20673;-77
2023/09/12 01:39:05;;;;;;;;;;;16.30;99.90;;;;;;4965822;28;19929;-76
2023/09/12 01:41:32;;;;;;;;;;;16.20;99.90;;;;;;4974531;28;20081;-77
2023/09/12 01:43:59;;;;;;;;;;;16.30;99.90;;;;;;4970011;28;20362;-76
2023/09/12 01:46:25;;;;;;;;;;;16.20;99.90;;;;;;4971636;28;19929;-76
2023/09/12 01:48:51;;;;;;;;;;;16.10;99.90;;;;;;4970183;28;19928;-76
2023/09/12 01:51:18;;;;;;;;;;;15.90;99.90;;;;;;4975248;28;20029;-78
2023/09/12 01:53:44;;;;;;;;;;;15.90;99.90;;;;;;4972262;28;19955;-76
2023/09/12 01:56:11;;;;;;;;;;;15.90;99.90;;;;;;4971826;28;19995;-72
2023/09/12 01:58:36;;;;;;;;;;;16.00;99.90;;;;;;4971543;28;19933;-76
2023/09/12 02:01:02;;;;;;;;;;;16.00;99.90;;;;;;4973243;28;20020;-76
2023/09/12 02:03:28;;;;;;;;;;;16.00;99.90;;;;;;4973331;28;19936;-76
2023/09/12 02:05:53;;;;;;;;;;;16.00;99.90;;;;;;4970353;28;19924;-76
2023/09/12 02:08:19;;;;;;;;;;;16.00;99.90;;;;;;4973839;28;19933;-76
2023/09/12 02:10:44;;;;;;;;;;;16.00;99.90;;;;;;4966640;28;19964;-76
2023/09/12 02:13:10;;;;;;;;;;;16.00;99.90;;;;;;4972005;28;19930;-76
2023/09/12 02:15:35;;;;;;;;;;;15.90;99.90;;;;;;4970444;28;20501;-77
2023/09/12 02:18:01;;;;;;;;;;;15.90;99.90;;;;;;4971655;28;19940;-77
2023/09/12 02:20:26;;;;;;;;;;;15.90;99.90;;;;;;4974567;28;19987;-76
2023/09/12 02:22:52;;;;;;;;;;;15.90;99.90;;;;;;4970724;28;21849;-76
2023/09/12 02:25:17;;;;;;;;;;;16.00;99.90;;;;;;4973926;28;19955;-76
2023/09/12 02:27:43;;;;;;;;;;;15.90;99.90;;;;;;4966632;28;19939;-76
2023/09/12 02:30:09;;;;;;;;;;;15.90;99.90;;;;;;4955674;28;20029;-76
2023/09/12 02:32:34;;;;;;;;;;;15.90;99.90;;;;;;4969322;28;19938;-76
2023/09/12 02:35:00;;;;;;;;;;;15.80;99.90;;;;;;4968870;28;20834;-76
2023/09/12 02:37:26;;;;;;;;;;;15.80;99.90;;;;;;4971203;28;19932;-76
2023/09/12 02:39:51;;;;;;;;;;;15.80;99.90;;;;;;4973696;28;19944;-76
2023/09/12 02:42:17;;;;;;;;;;;15.80;99.90;;;;;;4957224;28;19929;-76
2023/09/12 02:44:42;;;;;;;;;;;15.70;99.90;;;;;;4975579;28;20391;-76
2023/09/12 02:47:08;;;;;;;;;;;15.70;99.90;;;;;;4971962;28;19987;-76
2023/09/12 02:49:33;;;;;;;;;;;15.70;99.90;;;;;;4972435;28;19928;-76
2023/09/12 02:51:59;;;;;;;;;;;15.70;99.90;;;;;;4951251;28;20384;-76
2023/09/12 02:54:24;;;;;;;;;;;15.70;99.90;;;;;;4974404;28;19929;-74
2023/09/12 02:56:50;;;;;;;;;;;15.70;99.90;;;;;;4968243;28;19924;-73
2023/09/12 02:59:15;;;;;;;;;;;15.70;99.90;;;;;;4973963;28;19926;-74
2023/09/12 03:01:41;;;;;;;;;;;15.70;99.90;;;;;;4965565;28;19959;-73
2023/09/12 03:04:06;;;;;;;;;;;15.70;99.90;;;;;;4965578;28;21387;-72
2023/09/12 03:06:32;;;;;;;;;;;15.70;99.90;;;;;;4970796;28;19937;-72
2023/09/12 03:08:58;;;;;;;;;;;15.70;99.90;;;;;;4966212;28;19936;-72
2023/09/12 03:11:25;;;;;;;;;;;15.70;99.90;;;;;;4971303;28;19951;-71
2023/09/12 03:13:51;;;;;;;;;;;15.60;99.90;;;;;;4974238;28;20014;-75
2023/09/12 03:16:16;;;;;;;;;;;15.60;99.90;;;;;;4973769;28;19957;-76
2023/09/12 03:18:42;;;;;;;;;;;15.50;99.90;;;;;;4964411;28;20399;-77
2023/09/12 03:21:07;;;;;;;;;;;15.40;99.90;;;;;;4964556;28;19932;-77
2023/09/12 03:23:33;;;;;;;;;;;15.40;99.90;;;;;;4968406;28;19943;-76
2023/09/12 03:26:05;;;;;;;;;;;15.50;99.90;;;;;;4973329;28;19999;-76
2023/09/12 03:28:31;;;;;;;;;;;15.40;99.90;;;;;;4974740;28;19929;-76
2023/09/12 03:31:04;;;;;;;;;;;15.40;99.90;;;;;;4969756;28;20446;-77
2023/09/12 03:33:29;;;;;;;;;;;15.40;99.90;;;;;;4975025;28;19917;-77
2023/09/12 03:35:55;;;;;;;;;;;15.40;99.90;;;;;;4970776;28;19962;-77
2023/09/12 03:38:20;;;;;;;;;;;15.40;99.90;;;;;;4969596;28;19939;-76
2023/09/12 03:40:46;;;;;;;;;;;15.40;99.90;;;;;;4964247;28;19949;-76
2023/09/12 03:43:11;;;;;;;;;;;15.40;99.90;;;;;;4971727;28;19971;-76
2023/09/12 03:45:37;;;;;;;;;;;15.40;99.90;;;;;;4971326;28;19930;-76
2023/09/12 03:48:03;;;;;;;;;;;15.40;99.90;;;;;;4967892;28;19924;-72
2023/09/12 03:50:28;;;;;;;;;;;15.30;99.90;;;;;;4953451;28;20015;-77
2023/09/12 03:52:54;;;;;;;;;;;15.30;99.90;;;;;;4974408;28;19939;-76
2023/09/12 03:55:19;;;;;;;;;;;15.30;99.90;;;;;;4967795;28;19930;-76
2023/09/12 03:57:45;;;;;;;;;;;15.20;99.90;;;;;;4958916;28;19933;-76
2023/09/12 04:00:10;;;;;;;;;;;15.20;99.90;;;;;;4972725;28;19948;-77
2023/09/12 04:02:36;;;;;;;;;;;15.10;99.90;;;;;;4964536;28;20356;-76
2023/09/12 04:05:02;;;;;;;;;;;15.10;99.90;;;;;;4957904;28;19928;-77
2023/09/12 04:07:27;;;;;;;;;;;15.10;99.90;;;;;;4954939;28;20337;-77
2023/09/12 04:09:53;;;;;;;;;;;15.10;99.90;;;;;;4963778;28;20355;-77
2023/09/12 04:12:18;;;;;;;;;;;15.10;99.90;;;;;;4967143;28;20006;-77
2023/09/12 04:14:44;;;;;;;;;;;15.10;99.90;;;;;;4973609;28;19951;-76
2023/09/12 04:17:09;;;;;;;;;;;15.10;99.90;;;;;;4976400;28;19928;-76
2023/09/12 04:19:35;;;;;;;;;;;15.10;99.90;;;;;;4974056;28;19969;-76
2023/09/12 04:22:00;;;;;;;;;;;15.10;99.90;;;;;;4973712;28;19981;-77
2023/09/12 04:24:26;;;;;;;;;;;15.10;99.90;;;;;;4964521;28;20807;-76
2023/09/12 04:26:51;;;;;;;;;;;15.20;99.90;;;;;;4972350;28;19938;-76
2023/09/12 04:29:17;;;;;;;;;;;15.10;99.90;;;;;;4977633;28;19997;-76
2023/09/12 04:31:42;;;;;;;;;;;15.20;99.90;;;;;;4972199;28;19952;-76
2023/09/12 04:34:08;;;;;;;;;;;15.20;99.90;;;;;;4971271;28;19947;-77
2023/09/12 04:36:33;;;;;;;;;;;15.20;99.90;;;;;;4967135;28;19929;-77
2023/09/12 04:39:00;;;;;;;;;;;15.20;99.90;;;;;;4966221;28;20041;-75
2023/09/12 04:41:25;;;;;;;;;;;15.30;99.90;;;;;;4961701;28;20308;-74
2023/09/12 04:43:51;;;;;;;;;;;15.30;99.90;;;;;;4967857;28;19928;-73
2023/09/12 04:46:16;;;;;;;;;;;15.40;99.90;;;;;;4967340;28;19927;-73
2023/09/12 04:48:43;;;;;;;;;;;15.40;99.90;;;;;;4975483;28;19930;-74
2023/09/12 04:51:08;;;;;;;;;;;15.30;99.90;;;;;;4965741;28;22336;-74
2023/09/12 04:53:35;;;;;;;;;;;15.30;99.90;;;;;;4974319;28;19936;-73
2023/09/12 04:56:06;;;;;;;;;;;15.30;99.90;;;;;;4964092;28;19935;-73
2023/09/12 04:58:32;;;;;;;;;;;15.30;99.90;;;;;;4974402;28;20098;-73
2023/09/12 05:00:57;;;;;;;;;;;15.40;99.90;;;;;;4971225;28;19958;-73
2023/09/12 05:03:23;;;;;;;;;;;15.60;99.90;;;;;;4972218;28;20369;-72
2023/09/12 05:05:49;;;;;;;;;;;15.60;99.90;;;;;;4966553;28;19926;-72
2023/09/12 05:08:15;;;;;;;;;;;15.80;99.90;;;;;;4973201;28;19931;-72
2023/09/12 05:10:41;;;;;;;;;;;15.90;99.90;;;;;;4954898;28;20320;-72
2023/09/12 05:13:06;;;;;;;;;;;16.00;99.90;;;;;;4967099;28;20387;-72
2023/09/12 05:15:32;;;;;;;;;;;16.00;99.90;;;;;;4972595;28;20027;-72
2023/09/12 05:17:57;;;;;;;;;;;16.00;99.90;;;;;;4965771;28;19976;-72
2023/09/12 05:20:23;;;;;;;;;;;16.10;99.90;;;;;;4969044;28;19931;-72
2023/09/12 05:22:48;;;;;;;;;;;16.10;99.90;;;;;;4967283;28;19941;-73
2023/09/12 05:25:14;;;;;;;;;;;16.20;99.90;;;;;;4965769;28;19958;-74
2023/09/12 05:27:39;;;;;;;;;;;16.20;99.90;;;;;;4965113;28;20033;-74
2023/09/12 05:30:05;;;;;;;;;;;16.30;99.90;;;;;;4964210;28;19934;-72
2023/09/12 05:32:31;;;;;;;;;;;16.40;99.90;;;;;;4965971;28;19940;-74
2023/09/12 05:34:56;;;;;;;;;;;16.50;99.90;;;;;;4971131;28;20076;-72
2023/09/12 05:37:22;;;;;;;;;;;16.70;99.90;;;;;;4955932;28;19935;-73
2023/09/12 05:39:47;;;;;;;;;;;16.70;99.90;;;;;;4959184;28;20042;-73
2023/09/12 05:42:14;;;;;;;;;;;16.90;99.90;;;;;;4956978;28;19927;-74
2023/09/12 05:44:42;;;;;;;;;;;17.00;99.90;;;;;;4958094;28;19937;-75
2023/09/12 05:47:08;;;;;;;;;;;17.20;99.90;;;;;;4968394;28;20395;-73
2023/09/12 05:49:34;;;;;;;;;;;17.40;99.90;;;;;;4974768;28;20032;-73
2023/09/12 05:51:59;;;;;;;;;;;17.50;99.90;;;;;;4970362;28;19967;-73
2023/09/12 05:54:25;;;;;;;;;;;17.70;99.90;;;;;;4972920;28;20465;-72
2023/09/12 05:56:52;;;;;;;;;;;17.90;99.90;;;;;;4971454;28;19984;-72
2023/09/12 05:59:18;;;;;;;;;;;18.00;99.90;;;;;;4973407;28;19933;-70
2023/09/12 06:01:43;;;;;;;;;;;18.10;99.90;;;;;;4952506;28;19960;-72
2023/09/12 06:04:09;;;;;;;;;;;18.20;99.90;;;;;;4969950;28;19931;-72
2023/09/12 06:06:35;;;;;;;;;;;18.30;99.90;;;;;;4971215;28;19932;-72
2023/09/12 06:09:00;;;;;;;;;;;18.40;99.90;;;;;;4971140;28;19938;-72
2023/09/12 06:11:26;;;;;;;;;;;18.40;99.90;;;;;;4961188;28;20004;-76
2023/09/12 06:13:51;;;;;;;;;;;18.50;99.90;;;;;;4973995;28;19939;-72
2023/09/12 06:16:17;;;;;;;;;;;18.60;99.90;;;;;;4966127;28;19938;-72
2023/09/12 06:18:42;;;;;;;;;;;18.70;99.90;;;;;;4960289;28;20447;-72
2023/09/12 06:21:08;;;;;;;;;;;18.80;99.90;;;;;;4976726;28;19928;-71
2023/09/12 06:23:34;;;;;;;;;;;18.90;99.90;;;;;;4962962;28;19947;-72
2023/09/12 06:25:59;;;;;;;;;;;19.00;99.90;;;;;;4961097;28;20498;-72
2023/09/12 06:28:26;;;;;;;;;;;19.20;99.90;;;;;;4970385;28;19935;-72
2023/09/12 06:30:51;;;;;;;;;;;19.20;99.90;;;;;;4955989;28;21780;-71
2023/09/12 06:33:17;;;;;;;;;;;19.30;99.90;;;;;;4966275;28;19938;-72
2023/09/12 06:35:42;;;;;;;;;;;19.40;99.90;;;;;;4975194;28;19968;-72
2023/09/12 06:38:08;;;;;;;;;;;19.50;99.90;;;;;;4969937;28;19928;-72
2023/09/12 06:40:33;;;;;;;;;;;19.70;99.90;;;;;;4976559;28;19923;-72
2023/09/12 06:42:59;;;;;;;;;;;19.70;99.90;;;;;;4960169;28;20446;-72
2023/09/12 06:45:25;;;;;;;;;;;19.80;99.90;;;;;;4946270;28;21782;-72
2023/09/12 06:47:50;;;;;;;;;;;20.00;99.90;;;;;;4965140;28;19928;-72
2023/09/12 06:50:16;;;;;;;;;;;20.10;99.90;;;;;;4969193;28;20617;-72
2023/09/12 06:52:41;;;;;;;;;;;20.30;99.90;;;;;;4962876;28;19946;-72
2023/09/12 06:55:07;;;;;;;;;;;20.40;99.90;;;;;;4972674;28;19926;-72
2023/09/12 06:57:32;;;;;;;;;;;20.50;99.90;;;;;;4979995;28;20051;-72
2023/09/12 06:59:58;;;;;;;;;;;20.60;99.90;;;;;;4979403;28;20006;-72
2023/09/12 07:02:23;;;;;;;;;;;20.70;99.90;;;;;;4971699;28;19942;-72
2023/09/12 07:04:49;;;;;;;;;;;20.70;99.90;;;;;;4977302;28;19930;-72
2023/09/12 07:07:14;;;;;;;;;;;20.80;99.90;;;;;;4960631;28;20347;-72
2023/09/12 07:09:40;;;;;;;;;;;20.90;99.90;;;;;;4956270;28;19973;-72
2023/09/12 07:12:05;;;;;;;;;;;21.10;99.90;;;;;;4962151;28;19957;-73
2023/09/12 07:14:31;;;;;;;;;;;21.30;99.90;;;;;;4977626;28;21410;-72
2023/09/12 07:16:56;;;;;;;;;;;21.50;99.90;;;;;;4976831;28;19927;-72
2023/09/12 07:19:22;;;;;;;;;;;21.70;99.90;;;;;;4977776;28;20544;-73
2023/09/12 07:21:47;;;;;;;;;;;21.80;99.90;;;;;;4974113;28;19972;-73
2023/09/12 07:24:13;;;;;;;;;;;21.90;99.90;;;;;;4974558;28;19931;-73
2023/09/12 07:26:38;;;;;;;;;;;22.00;99.90;;;;;;4977922;28;19936;-72
2023/09/12 07:29:05;;;;;;;;;;;22.10;99.90;;;;;;4964597;28;19929;-73
2023/09/12 07:31:31;;;;;;;;;;;22.30;99.90;;;;;;4970301;28;19954;-73
2023/09/12 07:33:56;;;;;;;;;;;22.40;99.90;;;;;;4967752;28;19935;-74
2023/09/12 07:36:22;;;;;;;;;;;22.50;99.90;;;;;;4981861;28;19928;-73
2023/09/12 07:38:48;;;;;;;;;;;22.70;99.90;;;;;;4975488;28;20221;-73
2023/09/12 07:41:13;;;;;;;;;;;22.90;99.90;;;;;;4958713;28;20444;-72
2023/09/12 07:43:40;;;;;;;;;;;23.00;99.90;;;;;;4974066;28;20744;-71
2023/09/12 07:46:05;;;;;;;;;;;23.00;99.90;;;;;;4975776;28;20078;-72
2023/09/12 07:48:31;;;;;;;;;;;23.10;99.90;;;;;;4973443;28;19937;-73
2023/09/12 07:50:56;;;;;;;;;;;23.20;99.90;;;;;;4976311;28;19958;-73
2023/09/12 07:53:22;;;;;;;;;;;23.40;99.90;;;;;;4972338;28;19940;-73
2023/09/12 07:55:48;;;;;;;;;;;23.60;99.90;;;;;;4969592;28;20052;-74
2023/09/12 07:58:15;;;;;;;;;;;23.70;99.90;;;;;;4978067;28;19931;-74
2023/09/12 08:00:40;;;;;;;;;;;23.90;99.90;;;;;;4967044;28;20012;-73
2023/09/12 08:03:06;;;;;;;;;;;23.90;99.90;;;;;;4978605;28;19928;-74
2023/09/12 08:05:32;;;;;;;;;;;23.90;99.90;;;;;;4971252;28;19945;-74
2023/09/12 08:07:57;;;;;;;;;;;23.90;99.90;;;;;;4965318;28;19914;-74
2023/09/12 08:10:23;;;;;;;;;;;24.00;99.90;;;;;;4974491;28;19935;-74
2023/09/12 08:12:48;;;;;;;;;;;24.10;99.90;;;;;;4977760;28;19933;-74
2023/09/12 08:15:14;;;;;;;;;;;24.20;99.90;;;;;;4969470;28;19935;-74
2023/09/12 08:17:39;;;;;;;;;;;24.20;99.90;;;;;;4952918;28;19933;-73
2023/09/12 08:20:06;;;;;;;;;;;24.30;99.90;;;;;;4971585;28;20400;-73
2023/09/12 08:22:31;;;;;;;;;;;24.50;99.90;;;;;;4974981;28;19944;-73
2023/09/12 08:24:57;;;;;;;;;;;24.60;99.90;;;;;;4967246;28;19930;-73
2023/09/12 08:27:23;;;;;;;;;;;24.60;99.90;;;;;;4961232;28;19924;-73
2023/09/12 08:29:49;;;;;;;;;;;24.70;99.90;;;;;;4968469;28;20578;-73
2023/09/12 08:32:14;;;;;;;;;;;24.90;99.90;;;;;;4972712;28;19953;-73
2023/09/12 08:34:40;;;;;;;;;;;25.10;99.90;;;;;;4977361;28;19949;-73
2023/09/12 08:37:05;;;;;;;;;;;25.20;99.90;;;;;;4965366;28;19932;-73
2023/09/12 08:39:42;;;;;;;;;;;25.40;99.90;;;;;;4964418;28;19931;-73
2023/09/12 08:42:11;;;;;;;;;;;25.50;99.90;;;;;;4964468;28;20011;-73
2023/09/12 08:44:36;;;;;;;;;;;25.60;99.90;;;;;;4971592;28;19930;-73
2023/09/12 08:47:04;;;;;;;;;;;25.80;99.90;;;;;;4962953;28;19934;-73
2023/09/12 08:49:33;;;;;;;;;;;25.80;99.90;;;;;;4971999;28;19924;-73
2023/09/12 08:51:58;;;;;;;;;;;25.90;99.90;;;;;;4962828;28;19960;-73
2023/09/12 08:54:24;;;;;;;;;;;25.90;99.90;;;;;;4967601;28;19980;-74
2023/09/12 08:56:50;;;;;;;;;;;26.10;99.90;;;;;;4967882;28;20348;-74
2023/09/12 08:59:16;;;;;;;;;;;26.00;99.90;;;;;;4965785;28;19931;-70
2023/09/12 09:01:42;;;;;;;;;;;26.10;99.90;;;;;;4967754;28;19976;-84
2023/09/12 09:04:08;;;;;;;;;;;26.10;99.90;;;;;;4960732;28;20654;-83
2023/09/12 09:06:37;;;;;;;;;;;26.30;99.90;;;;;;4977558;28;20032;-84
2023/09/12 09:09:05;;;;;;;;;;;26.30;99.90;;;;;;4963175;28;20300;-83
2023/09/12 09:11:30;;;;;;;;;;;26.40;99.90;;;;;;4971076;28;19954;-82
2023/09/12 09:13:56;;;;;;;;;;;26.30;99.90;;;;;;4971138;28;19971;-83
2023/09/12 09:16:22;;;;;;;;;;;26.30;99.90;;;;;;4966062;28;20231;-82
2023/09/12 09:18:51;;;;;;;;;;;26.40;99.90;;;;;;4975671;28;19970;-70
2023/09/12 09:21:18;;;;;;;;;;;26.60;99.90;;;;;;4949490;28;19941;-69
2023/09/12 09:23:47;;;;;;;;;;;26.70;99.90;;;;;;4961142;28;20000;-69
2023/09/12 09:26:12;;;;;;;;;;;26.80;99.90;;;;;;4969873;28;19942;-69
2023/09/12 09:28:39;;;;;;;;;;;26.90;99.90;;;;;;4966517;28;19938;-69
2023/09/12 09:31:07;;;;;;;;;;;27.00;99.90;;;;;;4961406;28;19955;-69
2023/09/12 09:33:34;;;;;;;;;;;27.10;99.90;;;;;;4979612;28;20028;-69
2023/09/12 09:36:04;;;;;;;;;;;27.10;99.90;;;;;;4966076;28;19972;-84
2023/09/12 09:38:30;;;;;;;;;;;27.20;99.90;;;;;;4968533;28;20049;-69
2023/09/12 09:40:55;;;;;;;;;;;27.20;99.90;;;;;;4966122;28;20044;-70
2023/09/12 09:43:21;;;;;;;;;;;27.40;99.90;;;;;;4959681;28;20256;-70
2023/09/12 09:45:47;;;;;;;;;;;27.50;99.90;;;;;;4973777;28;20033;-70
2023/09/12 09:48:23;;;;;;;;;;;27.60;99.90;;;;;;4957916;28;20353;-70
2023/09/12 09:50:48;;;;;;;;;;;27.70;99.90;;;;;;4973567;28;20037;-70
2023/09/12 09:53:14;;;;;;;;;;;27.80;99.90;;;;;;4963726;28;19927;-70
2023/09/12 09:55:40;;;;;;;;;;;27.90;99.90;;;;;;4953216;28;20147;-81
2023/09/12 09:58:06;;;;;;;;;;;28.00;99.90;;;;;;4969283;28;19973;-82
2023/09/12 10:00:33;;;;;;;;;;;28.10;99.90;;;;;;4946056;28;19967;-83
2023/09/12 10:02:59;;;;;;;;;;;28.20;99.90;;;;;;4971981;28;20453;-83
2023/09/12 10:05:27;;;;;;;;;;;28.30;99.90;;;;;;4969837;28;19928;-82
2023/09/12 10:07:53;;;;;;;;;;;28.30;99.90;;;;;;4959538;28;19932;-80
2023/09/12 10:10:19;;;;;;;;;;;28.40;99.90;;;;;;4973457;28;19932;-82
2023/09/12 10:13:03;;;;;;;;;;;28.50;98.80;;;;;;4974848;28;20064;-82
2023/09/12 10:15:30;;;;;;;;;;;28.50;98.10;;;;;;4972878;28;19933;-65
2023/09/12 10:18:00;;;;;;;;;;;28.40;96.50;;;;;;4962985;28;20606;-65
2023/09/12 10:20:28;;;;;;;;;;;28.30;96.70;;;;;;4965528;28;19914;-64
2023/09/12 10:23:14;;;;;;;;;;;28.40;96.30;;;;;;4961565;28;19928;-65
2023/09/12 10:25:42;;;;;;;;;;;28.40;95.60;;;;;;4966981;28;19935;-65
2023/09/12 10:28:09;;;;;;;;;;;28.50;95.30;;;;;;4973416;28;20120;-65
2023/09/12 10:30:35;;;;;;;;;;;28.40;94.80;;;;;;4977897;28;19931;-65
2023/09/12 10:33:01;;;;;;;;;;;28.40;94.60;;;;;;4977683;28;19928;-66
2023/09/12 10:35:27;;;;;;;;;;;28.40;95.20;;;;;;4971557;28;20642;-75
2023/09/12 10:37:54;;;;;;;;;;;28.60;95.30;;;;;;4968309;28;19951;-75
2023/09/12 10:40:19;;;;;;;;;;;28.80;95.90;;;;;;4968040;28;20405;-75
2023/09/12 10:42:46;;;;;;;;;;;28.90;93.50;;;;;;4968060;28;19961;-76
2023/09/12 10:45:13;;;;;;;;;;;29.00;92.40;;;;;;4966503;28;19941;-74
2023/09/12 10:47:39;;;;;;;;;;;28.90;92.50;;;;;;4940221;28;19972;-74
2023/09/12 10:50:05;;;;;;;;;;;29.00;92.10;;;;;;4952089;28;19924;-65
2023/09/12 10:52:30;;;;;;;;;;;29.00;91.30;;;;;;4971149;28;20007;-65
2023/09/12 10:54:56;;;;;;;;;;;29.10;91.00;;;;;;4972564;28;20379;-65
2023/09/12 10:57:21;;;;;;;;;;;29.20;90.60;;;;;;4972647;28;19949;-65
2023/09/12 10:59:59;;;;;;;;;;;29.20;90.30;;;;;;4971174;28;20406;-65
2023/09/12 11:02:31;;;;;;;;;;;29.30;89.30;;;;;;4973750;28;19941;-66
2023/09/12 11:04:56;;;;;;;;;;;29.40;88.10;;;;;;4974383;28;20013;-66
2023/09/12 11:07:37;;;;;;;;;;;29.30;86.70;;;;;;4976348;28;19963;-66
2023/09/12 11:10:15;;;;;;;;;;;29.40;88.60;;;;;;4975778;28;19985;-69
2023/09/12 11:12:41;;;;;;;;;;;29.40;87.70;;;;;;4967334;28;19961;-76
2023/09/12 11:15:08;;;;;;;;;;;29.50;88.10;;;;;;4950629;28;19925;-76
2023/09/12 11:17:37;;;;;;;;;;;29.50;89.80;;;;;;4974610;28;19998;-76
2023/09/12 11:20:09;;;;;;;;;;;29.50;88.80;;;;;;4982081;28;19995;-76
2023/09/12 11:22:36;;;;;;;;;;;29.60;86.60;;;;;;4974609;28;19929;-75
2023/09/12 11:25:05;;;;;;;;;;;29.70;86.00;;;;;;4982009;28;19996;-75
2023/09/12 11:27:31;;;;;;;;;;;29.70;86.50;;;;;;4979176;28;19927;-76
2023/09/12 11:30:03;;;;;;;;;;;29.80;86.10;;;;;;4981671;28;19927;-65
2023/09/12 11:32:31;;;;;;;;;;;29.80;87.60;;;;;;4973962;28;19948;-66
2023/09/12 11:34:58;;;;;;;;;;;29.80;85.70;;;;;;4976266;28;19946;-66
2023/09/12 11:37:28;;;;;;;;;;;29.90;84.70;;;;;;4977706;28;19934;-65
2023/09/12 11:39:54;;;;;;;;;;;29.90;85.00;;;;;;4978047;28;20411;-66
2023/09/12 11:42:22;;;;;;;;;;;29.90;83.00;;;;;;4981806;28;19962;-66
2023/09/12 11:44:48;;;;;;;;;;;29.90;80.30;;;;;;4975005;28;20608;-65
2023/09/12 11:47:14;;;;;;;;;;;29.70;80.90;;;;;;4977224;28;19934;-65
2023/09/12 11:49:41;;;;;;;;;;;29.60;81.60;;;;;;4981712;28;19973;-66
2023/09/12 11:52:10;;;;;;;;;;;29.50;79.20;;;;;;4981835;28;19957;-65
2023/09/12 11:54:36;;;;;;;;;;;29.50;79.80;;;;;;4975509;28;19931;-65
2023/09/12 11:57:02;;;;;;;;;;;29.50;80.20;;;;;;4978554;28;20381;-66
2023/09/12 11:59:30;;;;;;;;;;;29.50;80.40;;;;;;4980512;28;19954;-72
2023/09/12 12:01:56;;;;;;;;;;;29.40;79.60;;;;;;4973749;28;20027;-69
2023/09/12 12:04:22;;;;;;;;;;;29.40;79.80;;;;;;4968535;28;20542;-69
2023/09/12 12:06:52;;;;;;;;;;;29.50;80.20;;;;;;4971962;28;19930;-73
2023/09/12 12:09:19;;;;;;;;;;;29.50;78.10;;;;;;4965816;28;19939;-73
2023/09/12 12:11:45;;;;;;;;;;;29.50;78.20;;;;;;4972742;28;20405;-73
2023/09/12 12:14:15;;;;;;;;;;;29.40;78.50;;;;;;4967694;28;20000;-74
2023/09/12 12:16:42;;;;;;;;;;;29.40;79.20;;;;;;4964323;28;20019;-74
2023/09/12 12:19:08;;;;;;;;;;;29.50;77.70;;;;;;4980293;28;19929;-74
2023/09/12 12:21:34;;;;;;;;;;;29.50;77.70;;;;;;4975092;28;19932;-74
2023/09/12 12:24:03;;;;;;;;;;;29.50;77.90;;;;;;4976879;28;19926;-75
2023/09/12 12:26:30;;;;;;;;;;;29.50;78.00;;;;;;4976908;28;19925;-76
2023/09/12 12:28:55;;;;;;;;;;;29.50;76.10;;;;;;4976647;28;19935;-72
2023/09/12 12:31:21;;;;;;;;;;;29.40;76.00;;;;;;4981811;28;19974;-69
2023/09/12 12:33:47;;;;;;;;;;;29.40;78.60;;;;;;4973812;28;19939;-70
2023/09/12 12:36:13;;;;;;;;;;;29.50;77.60;;;;;;4979602;28;19949;-70
2023/09/12 12:38:39;;;;;;;;;;;29.70;75.40;;;;;;4964545;28;20068;-69
2023/09/12 12:41:05;;;;;;;;;;;29.60;73.60;;;;;;4974930;28;19927;-69
2023/09/12 12:43:30;;;;;;;;;;;29.70;73.90;;;;;;4974751;28;19939;-65
2023/09/12 12:45:57;;;;;;;;;;;29.70;74.30;;;;;;4973254;28;19934;-65
2023/09/12 12:48:32;;;;;;;;;;;29.60;74.10;;;;;;4959272;28;20461;-66
2023/09/12 12:50:58;;;;;;;;;;;29.70;73.20;;;;;;4976951;28;19947;-65
2023/09/12 12:53:37;;;;;;;;;;;29.60;72.90;;;;;;4968758;28;19960;-71
2023/09/12 12:56:02;;;;;;;;;;;29.60;72.40;;;;;;4973056;28;20453;-70
2023/09/12 12:58:28;;;;;;;;;;;29.60;71.90;;;;;;4978812;28;20024;-70
2023/09/12 13:00:54;;;;;;;;;;;29.80;71.90;;;;;;4961069;28;20053;-70
2023/09/12 13:03:19;;;;;;;;;;;29.80;71.60;;;;;;4971907;28;19930;-70
2023/09/12 13:05:45;;;;;;;;;;;29.80;71.40;;;;;;4977548;28;20439;-70
2023/09/12 13:08:10;;;;;;;;;;;29.70;71.40;;;;;;4970426;28;19960;-70
2023/09/12 13:10:36;;;;;;;;;;;29.70;70.20;;;;;;4974440;28;19938;-70
2023/09/12 13:13:03;;;;;;;;;;;29.70;71.30;;;;;;4974625;28;19928;-71
2023/09/12 13:15:29;;;;;;;;;;;29.70;70.70;;;;;;4975021;28;19950;-70
2023/09/12 13:17:55;;;;;;;;;;;29.80;69.80;;;;;;4972830;28;19990;-70
2023/09/12 13:20:20;;;;;;;;;;;29.80;70.30;;;;;;4976386;28;19991;-70
2023/09/12 13:22:46;;;;;;;;;;;29.80;69.10;;;;;;4973450;28;20379;-70
2023/09/12 13:25:11;;;;;;;;;;;29.80;68.80;;;;;;4976230;28;20037;-70
2023/09/12 13:27:37;;;;;;;;;;;29.80;70.00;;;;;;4975457;28;20040;-70
2023/09/12 13:30:04;;;;;;;;;;;29.90;69.90;;;;;;4973293;28;19954;-70
2023/09/12 13:32:30;;;;;;;;;;;30.00;69.80;;;;;;4972925;28;19957;-70
2023/09/12 13:34:55;;;;;;;;;;;30.00;69.60;;;;;;4978863;28;19944;-70
2023/09/12 13:37:21;;;;;;;;;;;30.00;69.20;;;;;;4975509;28;19939;-69
2023/09/12 13:39:48;;;;;;;;;;;30.00;69.30;;;;;;4973143;28;19968;-71
2023/09/12 13:42:18;;;;;;;;;;;30.10;68.60;;;;;;4978435;28;20025;-70
2023/09/12 13:44:44;;;;;;;;;;;30.10;70.00;;;;;;4979217;28;19982;-70
2023/09/12 13:47:09;;;;;;;;;;;30.20;68.20;;;;;;4972607;28;19932;-71
2023/09/12 13:49:35;;;;;;;;;;;30.20;68.20;;;;;;4971933;28;19932;-72
2023/09/12 13:52:00;;;;;;;;;;;30.20;68.80;;;;;;4974318;28;19950;-71
2023/09/12 13:54:26;;;;;;;;;;;30.30;67.80;;;;;;4954913;28;20439;-71
2023/09/12 13:56:51;;;;;;;;;;;30.30;67.30;;;;;;4975101;28;19939;-72
2023/09/12 13:59:20;;;;;;;;;;;30.30;68.10;;;;;;4976273;28;19969;-72
2023/09/12 14:01:46;;;;;;;;;;;30.30;67.00;;;;;;4966702;28;19966;-70
2023/09/12 14:04:13;;;;;;;;;;;30.50;67.80;;;;;;4973388;28;19934;-70
2023/09/12 14:06:38;;;;;;;;;;;30.60;66.40;;;;;;4972761;28;20065;-73
2023/09/12 14:09:05;;;;;;;;;;;30.60;65.80;;;;;;4974886;28;19921;-72
2023/09/12 14:11:30;;;;;;;;;;;30.60;65.60;;;;;;4976029;28;20486;-71